Flight Track Log - Related Links

Times and Time Zones

All times are in EDT time to prevent confusion due to time zone crossing. See the N84WS flight status page for this flight to view local times or setup timezone preferences in your user account.

Time Position Orientation Groundspeed Altitude Reporting Facility
EDT Latitude Longitude Course Direction KTS MPH feet Rate Location/Type
Thu 10:24:14 AM 43.1000 -70.8333 270° West 104 120 1,200  Level KA90
Thu 10:25:26 AM 43.1000 -70.8667 270° West 114 131 2,400 864 Climbing KA90
Thu 10:26:26 AM 43.0667 -70.8833 200° South 121 139 3,100 350 Climbing KA90
Thu 10:27:26 AM 43.0333 -70.9167 216° Southwest 153 176 3,100  Level KA90
Thu 10:28:26 AM 42.9833 -70.9333 194° South 164 189 3,100 -50 Level KA90
Thu 10:29:26 AM 42.9500 -70.9667 216° Southwest 159 183 3,000 -48 Descending KA90
Thu 10:30:32 AM 42.9000 -71.0000 206° Southwest 156 180 3,000 47 Level KA90
Thu 10:31:33 AM 42.8667 -71.0167 200° South 156 180 3,100 50 Climbing KA90
Thu 10:32:32 AM 42.8167 -71.0333 194° South 162 186 3,100  Level KA90
Thu 10:33:32 AM 42.7833 -71.0500 200° South 165 190 3,100  Level KA90
Thu 10:34:32 AM 42.7500 -71.1000 228° Southwest 169 194 3,100  Level KA90
Thu 10:35:32 AM 42.7333 -71.1500 246° West 163 188 3,100  Level KA90
Thu 10:36:33 AM 42.6833 -71.1833 206° Southwest 170 196 3,100  Level KA90
Thu 10:37:32 AM 42.6500 -71.2000 200° South 167 192 3,100 -151 Level KA90
Thu 10:38:32 AM 42.6000 -71.2167 194° South 169 194 2,800 -397 Descending KA90
Thu 10:39:33 AM 42.5500 -71.2333 194° South 167 192 2,300 -595 Descending KA90
Thu 10:40:33 AM 42.5167 -71.2333 180° South 134 154 1,600 -650 Descending KA90
Thu 10:41:33 AM 42.4833 -71.2333 180° South 112 129 1,000 -550 Descending KA90
Thu 10:42:33 AM 42.4667 -71.2500 216° Southwest 107 123 500 -500 Descending KA90
Thu 10:44:00 AM 42.4667 -71.2833 209° Southwest  Level FlightAware Approximate
Thu 10:51:00 AM 42.4699 -71.2890 209° Southwest  Level Estimated

Login

Don't have an account? Register now (free) for customized features, flight alerts, and more!